Latest Weather Observations for Ballarat

IDV60801

Issued at 10:02 am EST Sunday 29 May 2016 (issued every 30 minutes, with the page automatically refreshed every 10 minutes)

About weather observations | Map of weather stations | Latest weather observations for VIC | Other Formats
Station Details ID: 089002 Name: BALLARAT AERODROME Lat: -37.51 Lon: 143.79 Height: 435.2 m
Data from the previous 72 hours. | See also: Recent months at Ballarat
Date/Time
EST
Temp
°C
App
Temp
°C
Dew
Point
Rel
Hum
%
Delta-T
°C
Wind Press
QNH
hPa
Press
MSL
hPa
Rain
since 9 am
mm
Dir
 
Spd
km/h
Gust
km/h
Spd
kts
Gust
kts
29/10:00am 7.5 3.6 3.2 74 1.9 SSW 13 19 7 10 1020.9 1021.1 0.0
29/09:30am 7.5 4.1 4.1 79 1.5 SW 11 15 6 8 1020.4 1020.7 0.0
29/09:00am 7.2 4.3 4.9 85 1.0 SW 9 13 5 7 1020.1 1020.4 0.2
29/08:30am 7.0 4.5 5.0 87 0.9 WSW 7 11 4 6 1019.8 1020.1 0.2
29/08:00am 6.6 4.4 5.4 92 0.5 SW 6 9 3 5 1019.4 1019.7 0.2
29/07:30am 6.5 4.3 5.1 91 0.6 SW 6 7 3 4 1019.2 1019.4 0.2
29/07:00am 6.4 4.0 5.4 93 0.5 SW 7 9 4 5 1018.9 1019.1 0.2
29/06:30am 6.3 4.0 5.6 95 0.3 SW 7 9 4 5 1018.6 1018.8 0.2
29/06:00am 6.3 4.1 6.0 98 0.1 SSW 7 11 4 6 1018.5 1018.7 0.2
29/05:30am 6.2 3.9 5.9 98 0.1 SW 7 11 4 6 1018.3 1018.5 0.2
29/05:00am 6.2 4.1 5.9 98 0.1 SSW 6 9 3 5 1018.2 1018.4 0.2
29/04:30am 6.1 4.0 5.8 98 0.1 SW 6 9 3 5 1018.2 1018.4 0.2
29/04:00am 6.1 3.4 5.8 98 0.1 SW 9 13 5 7 1018.0 1018.3 0.2
29/03:30am 6.1 3.8 5.8 98 0.1 WSW 7 11 4 6 1018.2 1018.4 0.2
29/03:00am 6.1 3.8 5.8 98 0.1 SW 7 11 4 6 1017.9 1018.2 0.2
29/02:30am 6.2 3.6 5.9 98 0.1 WSW 9 15 5 8 1017.9 1018.2 0.2
29/02:00am 6.3 3.7 6.0 98 0.1 W 9 11 5 6 1017.6 1017.9 0.2
29/01:30am 6.4 4.2 6.1 98 0.1 WSW 7 9 4 5 1017.4 1017.7 0.2
29/01:00am 6.5 4.3 6.1 97 0.2 SW 7 11 4 6 1017.5 1017.8 0.2
29/12:30am 6.5 3.9 6.2 98 0.1 SW 9 17 5 9 1017.3 1017.6 0.2
29/12:00am 6.7 3.7 6.1 96 0.3 SSW 11 15 6 8 1017.3 1017.6 0.2
 
Date/Time
EST
Temp
°C
App
Temp
°C
Dew
Point
Rel
Hum
%
Delta-T
°C
Wind Press
QNH
hPa
Press
MSL
hPa
Rain
since 9 am
mm
Dir
 
Spd
km/h
Gust
km/h
Spd
kts
Gust
kts
28/11:30pm 6.7 3.3 6.0 95 0.3 SSW 13 20 7 11 1017.2 1017.4 0.2
28/11:00pm 6.7 3.8 6.4 98 0.1 SSW 11 13 6 7 1017.2 1017.4 0.2
28/10:30pm 6.8 3.9 6.5 98 0.1 SW 11 15 6 8 1017.0 1017.2 0.2
28/10:00pm 6.7 3.8 6.4 98 0.1 SW 11 17 6 9 1017.0 1017.2 0.2
28/09:30pm 6.5 3.6 6.4 99 0.0 SW 11 15 6 8 1017.0 1017.2 0.2
28/09:00pm 6.5 3.6 6.4 99 0.0 SW 11 15 6 8 1016.9 1017.1 0.2
28/08:30pm 6.7 3.0 6.4 98 0.1 SW 15 24 8 13 1016.8 1017.0 0.2
28/08:21pm 6.7 2.6 6.4 98 0.1 SW 17 24 9 13 1016.7 1016.9 0.2
28/08:02pm 7.3 3.2 6.4 94 0.4 SW 17 24 9 13 1016.5 1016.7 0.2
28/08:00pm 7.3 3.2 6.4 94 0.4 SW 17 24 9 13 1016.5 1016.7 0.2
28/07:30pm 7.5 3.6 5.3 86 1.0 SW 15 24 8 13 1016.3 1016.5 0.2
28/07:00pm 7.8 3.6 4.0 77 1.7 SSW 15 20 8 11 1016.0 1016.2 0.2
28/06:30pm 8.0 4.6 3.8 75 1.9 SSW 11 15 6 8 1015.8 1016.0 0.2
28/06:00pm 8.2 4.3 3.3 71 2.1 SW 13 20 7 11 1015.3 1015.5 0.2
28/05:30pm 8.4 3.6 2.4 66 2.6 SSW 17 26 9 14 1014.9 1015.1 0.2
28/05:00pm 8.2 3.9 3.3 71 2.1 SSW 15 24 8 13 1014.6 1014.8 0.2
28/04:30pm 8.6 3.9 3.4 70 2.3 SSW 17 24 9 13 1014.2 1014.4 0.2
28/04:00pm 9.0 4.1 4.2 72 2.2 SSW 19 28 10 15 1014.0 1014.2 0.2
28/03:30pm 9.6 4.4 3.6 66 2.7 SSW 20 33 11 18 1013.5 1013.7 0.2
28/03:00pm 9.7 3.2 4.9 72 2.2 SSW 28 39 15 21 1013.1 1013.3 0.2
28/02:30pm 9.5 4.6 6.8 83 1.3 SSW 22 33 12 18 1012.7 1012.9 0.2
28/02:00pm 9.6 4.7 7.0 84 1.3 SSW 22 33 12 18 1012.5 1012.7 0.2
28/01:30pm 8.1 2.5 7.0 93 0.5 S 26 43 14 23 1012.5 1012.7 0.2
28/01:00pm 10.2 5.1 6.2 76 1.9 S 22 32 12 17 1012.1 1012.3 0.0
28/12:30pm 9.6 4.1 5.8 77 1.8 S 24 32 13 17 1012.1 1012.3 0.0
28/12:00pm 9.8 5.1 6.0 77 1.8 SSW 20 28 11 15 1012.3 1012.5 0.0
28/11:30am 9.6 4.9 6.1 79 1.7 SSW 20 32 11 17 1012.4 1012.6 0.0
28/11:15am 9.5 4.5 6.6 82 1.4 SSW 22 30 12 16 1012.5 1012.7 0.0
28/11:00am 8.9 4.3 6.5 85 1.1 SSW 20 30 11 16 1012.5 1012.7 0.0
28/10:30am 8.2 4.5 7.9 98 0.1 SW 17 24 9 13 1012.3 1012.5 0.0
28/10:19am 7.7 3.5 7.4 98 0.1 SW 19 24 10 13 1012.1 1012.3 0.0
28/10:00am 7.8 4.0 7.7 99 0.0 SSW 17 24 9 13 1011.9 1012.1 0.0
28/09:30am 7.3 4.2 7.2 99 0.0 SSW 13 20 7 11 1011.6 1011.8 0.0
28/09:00am 6.3 3.4 6.3 100 0.0 SSW 11 17 6 9 1011.3 1011.4 0.0
28/08:30am 5.0 2.2 5.0 100 0.0 SSW 9 13 5 7 1011.1 1011.2 0.0
28/08:28am 5.0 2.2 5.0 100 0.0 SSW 9 13 5 7 1011.1 1011.2 0.0
28/08:00am 5.1 1.5 5.1 100 0.0 SSW 13 20 7 11 1010.7 1010.9 0.0
28/07:32am 4.4 0.7 4.4 100 0.0 S 13 17 7 9 1010.6 1010.8 0.0
28/07:30am 4.4 0.7 4.4 100 0.0 S 13 17 7 9 1010.5 1010.7 0.0
28/07:00am 3.8 0.7 3.8 100 0.0 SSW 9 15 5 8 1010.1 1010.3 0.0
28/06:56am 3.9 0.9 3.9 100 0.0 SSW 9 15 5 8 1010.1 1010.3 0.0
28/06:46am 3.6 0.5 3.6 100 0.0 SW 9 11 5 6 1010.0 1010.2 0.0
28/06:38am 4.5 1.2 4.5 100 0.0 S 11 17 6 9 1009.7 1009.9 0.0
28/06:34am 4.5 0.8 4.5 100 0.0 S 13 17 7 9 1009.6 1009.8 0.0
28/06:30am 4.6 0.9 4.6 100 0.0 S 13 17 7 9 1009.6 1009.8 0.0
28/06:00am 4.7 1.4 4.7 100 0.0 S 11 15 6 8 1009.2 1009.3 0.0
28/05:30am 4.1 1.1 4.1 100 0.0 S 9 11 5 6 1008.9 1009.0 0.0
28/05:00am 4.2 1.2 4.2 100 0.0 SSE 9 13 5 7 1008.6 1008.7 0.0
28/04:53am 4.6 1.3 4.6 100 0.0 SSE 11 15 6 8 1008.6 1008.7 0.0
28/04:46am 4.4 1.1 4.4 100 0.0 SSE 11 15 6 8 1008.6 1008.7 0.0
28/04:30am 4.5 1.2 4.5 100 0.0 S 11 15 6 8 1008.4 1008.5 0.0
28/04:00am 4.5 0.4 4.5 100 0.0 S 15 17 8 9 1008.1 1008.3 0.0
28/03:30am 4.7 1.0 4.6 99 0.0 S 13 17 7 9 1007.9 1008.1 0.0
28/03:00am 6.5 2.4 6.2 98 0.1 SE 17 22 9 12 1007.8 1008.0 0.0
28/02:30am 6.6 2.1 6.3 98 0.1 SE 19 24 10 13 1007.7 1007.9 0.0
28/02:00am 6.8 2.3 5.9 94 0.4 SE 19 22 10 12 1007.6 1007.8 0.0
28/01:30am 7.1 3.0 6.4 95 0.3 SE 17 22 9 12 1007.4 1007.5 0.0
28/01:00am 7.3 3.2 6.1 92 0.6 ESE 17 22 9 12 1007.3 1007.4 0.0
28/12:30am 7.4 3.3 6.0 91 0.6 ESE 17 22 9 12 1007.4 1007.5 0.0
28/12:00am 7.5 3.4 6.0 90 0.7 ESE 17 20 9 11 1007.5 1007.6 0.0
 
Date/Time
EST
Temp
°C
App
Temp
°C
Dew
Point
Rel
Hum
%
Delta-T
°C
Wind Press
QNH
hPa
Press
MSL
hPa
Rain
since 9 am
mm
Dir
 
Spd
km/h
Gust
km/h
Spd
kts
Gust
kts
27/11:30pm 7.4 4.4 5.9 90 0.7 ESE 11 15 6 8 1007.4 1007.5 0.0
27/11:00pm 7.5 4.4 5.5 87 0.9 ESE 11 17 6 9 1007.4 1007.5 0.0
27/10:30pm 7.4 3.8 5.2 86 1.0 ESE 13 17 7 9 1007.3 1007.4 0.0
27/10:00pm 7.7 4.2 5.3 85 1.1 SE 13 17 7 9 1007.3 1007.4 0.0
27/09:30pm 8.0 5.6 5.1 82 1.3 E 7 11 4 6 1007.0 1007.1 0.0
27/09:00pm 8.1 4.9 5.0 81 1.4 E 11 17 6 9 1006.8 1006.9 0.0
27/08:30pm 8.3 4.7 4.9 79 1.5 E 13 15 7 8 1006.8 1006.9 0.0
27/08:00pm 8.2 5.5 5.8 85 1.1 ENE 9 13 5 7 1006.8 1006.9 0.0
27/07:30pm 8.3 4.9 5.8 84 1.2 ENE 13 15 7 8 1006.6 1006.7 0.0
27/07:00pm 8.6 6.0 6.1 84 1.2 NE 9 13 5 7 1006.5 1006.6 0.0
27/06:30pm 8.2 5.7 6.7 90 0.7 ENE 9 11 5 6 1006.3 1006.4 0.0
27/06:00pm 8.2 5.7 6.5 89 0.8 ENE 9 9 5 5 1006.3 1006.4 0.0
27/05:30pm 8.0 5.7 5.8 86 1.0 ENE 7 9 4 5 1006.1 1006.2 0.0
27/05:00pm 8.8 6.5 5.9 82 1.4 NE 7 9 4 5 1006.1 1006.2 0.0
27/04:30pm 9.2 6.6 5.9 80 1.5 ENE 9 11 5 6 1005.8 1006.0 0.0
27/04:00pm 9.3 6.2 5.5 77 1.8 N 11 15 6 8 1006.2 1006.3 0.0
27/03:30pm 10.2 8.6 4.4 67 2.7 NNE 2 7 1 4 1006.1 1006.2 0.0
27/03:00pm 10.5 9.2 4.2 65 2.9 CALM 0 0 0 0 1006.2 1006.3 0.0
27/02:30pm 10.7 8.2 4.0 63 3.1 NNW 6 11 3 6 1006.1 1006.2 0.0
27/02:00pm 10.8 8.1 3.6 61 3.3 NW 7 11 4 6 1006.4 1006.5 0.0
27/01:30pm 11.2 8.3 4.7 64 3.0 NW 9 26 5 14 1006.4 1006.5 0.0
27/01:00pm 10.9 7.5 4.1 63 3.1 WNW 11 17 6 9 1006.7 1006.8 0.0
27/12:30pm 10.2 6.4 6.0 75 2.0 WNW 15 20 8 11 1007.0 1007.1 0.0
27/12:00pm 10.1 6.5 4.9 70 2.4 W 13 17 7 9 1007.4 1007.5 0.0
27/11:30am 10.4 6.5 6.9 79 1.7 WNW 17 20 9 11 1007.8 1008.0 0.0
27/11:09am 9.9 6.5 7.7 86 1.1 WNW 15 20 8 11 1008.1 1008.3 0.0
27/11:00am 9.4 6.4 7.8 90 0.8 WNW 13 19 7 10 1008.2 1008.4 0.0
27/10:30am 8.4 6.3 8.1 98 0.1 WNW 9 15 5 8 1008.5 1008.6 0.0
27/10:00am 7.6 5.3 7.5 99 0.0 WNW 9 13 5 7 1008.6 1008.7 0.0
27/09:57am 7.6 5.3 7.5 99 0.0 W 9 17 5 9 1008.6 1008.7 0.0
27/09:30am 7.1 4.7 7.1 100 0.0 WNW 9 15 5 8 1008.5 1008.6 0.0
27/09:00am 6.1 5.2 6.1 100 0.0 CALM 0 0 0 0 1008.4 1008.5 0.8
27/08:58am 6.0 5.1 6.0 100 0.0 CALM 0 0 0 0 1008.4 1008.5 0.8
27/08:57am 6.0 5.1 6.0 100 0.0 CALM 0 0 0 0 1008.4 1008.5 0.8
27/08:30am 4.6 3.4 4.6 100 0.0 CALM 0 0 0 0 1008.2 1008.4 0.8
27/08:00am 3.5 2.1 3.5 100 0.0 CALM 0 0 0 0 1008.0 1008.2 0.8
27/07:30am 3.8 1.3 3.8 100 0.0 NW 6 6 3 3 1008.0 1008.2 0.8
27/07:13am 4.1 1.5 4.1 100 0.0 W 7 9 4 5 1008.0 1008.2 0.8
27/07:00am 4.8 2.3 4.8 100 0.0 WSW 7 9 4 5 1007.9 1008.1 0.8
27/06:41am 5.0 2.2 5.0 100 0.0 W 9 13 5 7 1007.9 1008.1 0.8
27/06:30am 5.1 2.3 5.1 100 0.0 W 9 11 5 6 1007.8 1008.0 0.8
27/06:00am 5.2 2.4 5.2 100 0.0 WSW 9 15 5 8 1007.7 1007.9 0.8
27/05:30am 5.0 2.2 5.0 100 0.0 W 9 11 5 6 1007.4 1007.5 0.8
27/05:00am 5.1 1.9 5.1 100 0.0 W 11 13 6 7 1007.4 1007.5 0.8
27/04:44am 5.2 1.6 5.2 100 0.0 W 13 17 7 9 1007.5 1007.6 0.8
27/04:30am 5.3 1.8 5.3 100 0.0 W 13 19 7 10 1007.4 1007.5 0.8
27/04:25am 5.3 1.4 5.3 100 0.0 W 15 19 8 10 1007.3 1007.4 0.8
27/04:00am 5.3 2.1 5.3 100 0.0 W 11 15 6 8 1007.5 1007.6 0.8
27/03:30am 4.8 1.9 4.8 100 0.0 W 9 13 5 7 1007.6 1007.8 0.8
27/03:27am 4.7 1.4 4.7 100 0.0 W 11 13 6 7 1007.6 1007.8 0.8
27/03:14am 4.3 1.0 4.3 100 0.0 W 11 13 6 7 1007.7 1007.9 0.8
27/03:00am 4.2 1.6 4.2 100 0.0 WSW 7 11 4 6 1007.6 1007.8 0.8
27/02:30am 4.3 1.3 4.3 100 0.0 W 9 13 5 7 1007.6 1007.8 0.8
27/02:00am 4.0 0.6 4.0 100 0.0 W 11 13 6 7 1007.6 1007.8 0.8
27/01:30am 4.0 0.6 4.0 100 0.0 W 11 13 6 7 1007.6 1007.8 0.8
27/01:00am 4.2 0.8 4.2 100 0.0 W 11 15 6 8 1007.7 1007.9 0.8
27/12:30am 4.2 1.2 4.2 100 0.0 W 9 13 5 7 1007.9 1008.1 0.4
27/12:00am 4.2 0.8 4.1 99 0.0 W 11 15 6 8 1007.9 1008.1 0.4
 
Date/Time
EST
Temp
°C
App
Temp
°C
Dew
Point
Rel
Hum
%
Delta-T
°C
Wind Press
QNH
hPa
Press
MSL
hPa
Rain
since 9 am
mm
Dir
 
Spd
km/h
Gust
km/h
Spd
kts
Gust
kts
26/11:30pm 4.7 1.4 4.6 99 0.0 WSW 11 15 6 8 1007.9 1008.1 0.4
26/11:00pm 4.8 1.5 4.7 99 0.0 WSW 11 15 6 8 1007.8 1008.0 0.4
26/10:30pm 4.8 1.9 4.7 99 0.0 WSW 9 13 5 7 1007.8 1008.0 0.4
26/10:00pm 5.3 1.7 5.2 99 0.0 WSW 13 19 7 10 1008.0 1008.2 0.4
26/09:30pm 5.4 1.9 5.3 99 0.0 WSW 13 17 7 9 1008.0 1008.2 0.4
26/09:00pm 5.6 2.5 5.5 99 0.0 WSW 11 15 6 8 1007.8 1008.0 0.4
26/08:30pm 5.9 2.9 5.8 99 0.0 WSW 11 15 6 8 1007.6 1007.8 0.4
26/08:00pm 6.1 3.5 6.0 99 0.0 WSW 9 13 5 7 1007.5 1007.6 0.4
26/07:30pm 6.1 3.4 5.8 98 0.1 SW 9 13 5 7 1007.3 1007.4 0.4
26/07:00pm 6.7 4.2 6.4 98 0.1 SW 9 17 5 9 1007.1 1007.2 0.4
26/06:30pm 7.3 3.4 6.9 97 0.2 SSW 17 26 9 14 1006.8 1006.9 0.4
26/06:00pm 7.6 4.1 7.3 98 0.1 SW 15 26 8 14 1006.5 1006.6 0.4
26/05:30pm 7.8 4.8 7.5 98 0.1 SW 13 20 7 11 1006.0 1006.1 0.4
26/05:00pm 8.3 4.6 8.0 98 0.1 SW 17 24 9 13 1005.4 1005.5 0.4
26/04:30pm 8.5 4.9 8.2 98 0.1 SSW 17 24 9 13 1005.2 1005.3 0.4
26/04:00pm 8.7 4.2 8.4 98 0.1 SSW 22 33 12 18 1005.1 1005.2 0.4
26/03:30pm 9.1 5.6 8.8 98 0.2 SW 17 24 9 13 1004.6 1004.7 0.4
26/03:19pm 8.8 4.5 8.0 95 0.4 SW 20 33 11 18 1004.7 1004.8 0.4
26/03:04pm 9.0 5.1 8.7 98 0.1 SSW 19 28 10 15 1004.6 1004.7 0.4
26/03:00pm 9.0 4.9 8.7 98 0.2 SSW 20 28 11 15 1004.5 1004.6 0.4
26/02:30pm 8.5 4.5 8.2 98 0.1 SSW 19 28 10 15 1004.5 1004.6 0.4
26/02:17pm 8.5 3.5 8.2 98 0.1 SSW 24 37 13 20 1004.6 1004.7 0.4
26/02:00pm 8.5 3.6 8.4 99 0.0 SW 24 37 13 20 1004.4 1004.5 0.4
26/01:33pm 9.1 5.1 9.0 99 0.1 SW 20 30 11 16 1004.1 1004.2 0.2
26/01:30pm 9.0 5.0 8.9 99 0.1 SW 20 30 11 16 1004.1 1004.2 0.2
26/01:00pm 9.2 6.2 9.1 99 0.1 SSW 15 24 8 13 1004.0 1004.1 0.0
26/12:46pm 9.2 5.4 8.9 98 0.2 SSW 19 28 10 15 1003.9 1004.0 0.0
26/12:30pm 9.9 6.7 9.8 99 0.1 SSW 17 22 9 12 1003.8 1003.9 0.0
26/12:00pm 9.2 5.7 8.9 98 0.2 SSW 17 28 9 15 1004.0 1004.1 0.0
26/11:53am 9.1 6.4 9.0 99 0.1 SSW 13 17 7 9 1004.1 1004.2 0.0
26/11:30am 8.8 5.6 8.5 98 0.1 SSW 15 24 8 13 1004.2 1004.3 0.0
26/11:00am 8.7 5.5 8.6 99 0.0 SSW 15 24 8 13 1004.4 1004.5 0.0
26/10:53am 8.7 5.5 8.6 99 0.0 SSW 15 22 8 12 1004.3 1004.4 0.0
26/10:30am 8.4 4.8 8.3 99 0.0 S 17 24 9 13 1004.4 1004.5 0.0

Other Formats:

Comma delimited format used in spreadsheet applications
http://www.bom.gov.au/fwo/IDV60801/IDV60801.94852.axf

JavaScript Object Notation format (JSON) in row-major order
http://www.bom.gov.au/fwo/IDV60801/IDV60801.94852.json